createdAt,value
2018-03-25T00:00:24.252Z,26.47
2018-03-25T00:02:51.710Z,27.00
2018-03-25T00:05:19.213Z,27.37
2018-03-25T00:07:47.511Z,25.70
2018-03-25T00:10:14.980Z,25.50
2018-03-25T00:12:42.491Z,24.83
2018-03-25T00:15:10.763Z,23.30
2018-03-25T00:17:39.016Z,22.20
2018-03-25T00:20:06.477Z,23.57
2018-03-25T00:22:33.981Z,20.13
2018-03-25T00:25:01.630Z,22.23
2018-03-25T00:27:29.912Z,22.87
2018-03-25T00:29:58.161Z,24.07
2018-03-25T00:32:25.648Z,26.77
2018-03-25T00:34:53.888Z,25.97
2018-03-25T00:37:21.370Z,24.27
2018-03-25T00:39:48.842Z,24.50
2018-03-25T00:42:17.108Z,26.63
2018-03-25T00:44:45.360Z,49.07
2018-03-25T00:47:12.865Z,27.10
2018-03-25T00:49:40.368Z,30.77
2018-03-25T00:52:07.914Z,27.17
2018-03-25T00:54:35.402Z,27.37
2018-03-25T00:57:02.882Z,26.70
2018-03-25T00:59:31.134Z,26.10
2018-03-25T01:01:58.599Z,25.73
2018-03-25T01:04:26.091Z,23.70
2018-03-25T01:06:53.614Z,24.60
2018-03-25T01:09:21.139Z,24.53
2018-03-25T01:11:48.622Z,22.27
2018-03-25T01:14:16.094Z,22.60
2018-03-25T01:16:43.578Z,23.70
2018-03-25T01:19:11.831Z,27.00
2018-03-25T01:21:39.332Z,23.50
2018-03-25T01:24:06.811Z,22.83
2018-03-25T01:26:34.301Z,21.87
2018-03-25T01:29:01.786Z,22.20
2018-03-25T01:31:30.046Z,22.03
2018-03-25T01:33:57.564Z,24.10
2018-03-25T01:36:25.054Z,27.43
2018-03-25T01:38:52.540Z,25.40
2018-03-25T01:41:20.795Z,25.47
2018-03-25T01:43:48.278Z,24.00
2018-03-25T01:46:16.531Z,22.50
2018-03-25T01:48:44.027Z,23.00
2018-03-25T01:51:11.511Z,23.47
2018-03-25T01:53:39.015Z,21.37
2018-03-25T01:56:06.505Z,22.80
2018-03-25T01:58:33.993Z,21.13
2018-03-25T02:01:01.466Z,23.37
2018-03-25T02:03:28.969Z,23.27
2018-03-25T02:05:57.249Z,23.70
2018-03-25T02:08:25.511Z,22.13
2018-03-25T02:10:53.751Z,22.87
2018-03-25T02:13:21.246Z,24.60
2018-03-25T02:15:49.487Z,25.03
2018-03-25T02:18:16.990Z,24.03
2018-03-25T02:20:45.240Z,25.37
2018-03-25T02:23:12.724Z,22.77
2018-03-25T02:25:40.576Z,24.90
2018-03-25T02:28:08.080Z,23.33
2018-03-25T02:30:35.607Z,21.67
2018-03-25T02:33:03.881Z,23.27
2018-03-25T02:35:32.135Z,23.70
2018-03-25T02:37:59.615Z,21.50
2018-03-25T02:40:27.873Z,22.53
2018-03-25T02:42:55.345Z,23.30
2018-03-25T02:45:23.716Z,22.03
2018-03-25T02:47:51.184Z,21.50
2018-03-25T02:50:19.495Z,21.10
2018-03-25T02:52:46.984Z,21.57
2018-03-25T02:55:14.475Z,20.70
2018-03-25T02:57:42.722Z,21.33
2018-03-25T03:00:10.202Z,22.17
2018-03-25T03:02:37.715Z,21.23
2018-03-25T03:05:05.201Z,21.80
2018-03-25T03:07:32.683Z,19.90
2018-03-25T03:10:00.174Z,20.57
2018-03-25T03:12:27.664Z,19.30
2018-03-25T03:14:55.152Z,23.00
2018-03-25T03:17:22.679Z,19.90
2018-03-25T03:19:50.167Z,22.20
2018-03-25T03:22:18.444Z,19.80
2018-03-25T03:24:45.940Z,19.70
2018-03-25T03:27:13.423Z,19.37
2018-03-25T03:29:40.982Z,19.97
2018-03-25T03:32:08.482Z,20.23
2018-03-25T03:34:35.983Z,18.27
2018-03-25T03:37:03.562Z,18.73
2018-03-25T03:39:31.052Z,20.63
2018-03-25T03:41:58.559Z,20.87
2018-03-25T03:44:26.036Z,19.03
2018-03-25T03:46:53.530Z,20.50
2018-03-25T03:49:21.782Z,20.73
2018-03-25T03:51:49.262Z,19.57
2018-03-25T03:54:16.770Z,20.17
2018-03-25T03:56:44.250Z,17.50
2018-03-25T03:59:11.759Z,20.23
2018-03-25T04:01:39.247Z,21.13
2018-03-25T04:04:06.742Z,20.30
2018-03-25T04:06:34.218Z,19.50
2018-03-25T04:09:01.724Z,19.53
2018-03-25T04:11:29.966Z,22.30
2018-03-25T04:13:57.455Z,20.10
2018-03-25T04:16:24.931Z,19.57
2018-03-25T04:18:52.422Z,19.23
2018-03-25T04:21:19.899Z,20.50
2018-03-25T04:23:47.408Z,19.40
2018-03-25T04:26:14.905Z,22.40
2018-03-25T04:28:42.444Z,19.70
2018-03-25T04:31:09.926Z,19.00
2018-03-25T04:33:37.422Z,23.10
2018-03-25T04:36:05.672Z,18.77
2018-03-25T04:38:33.162Z,18.70
2018-03-25T04:41:00.677Z,20.60
2018-03-25T04:43:28.168Z,20.10
2018-03-25T04:45:56.438Z,19.63
2018-03-25T04:48:24.711Z,20.20
2018-03-25T04:50:52.962Z,19.40
2018-03-25T04:53:20.443Z,20.00
2018-03-25T04:55:47.930Z,21.27
2018-03-25T04:58:15.407Z,31.00
2018-03-25T05:00:42.884Z,24.27
2018-03-25T05:03:10.359Z,21.83
2018-03-25T05:05:37.883Z,20.13
2018-03-25T05:08:05.427Z,19.23
2018-03-25T05:10:32.876Z,20.40
2018-03-25T05:13:01.156Z,21.00
2018-03-25T05:15:29.420Z,20.60
2018-03-25T05:17:57.667Z,19.43
2018-03-25T05:20:25.143Z,19.53
2018-03-25T05:22:52.628Z,17.13
2018-03-25T05:25:20.197Z,21.80
2018-03-25T05:27:47.691Z,21.40
2018-03-25T05:30:15.215Z,20.07
2018-03-25T05:32:42.714Z,19.43
2018-03-25T05:35:10.230Z,20.13
2018-03-25T05:37:37.719Z,20.77
2018-03-25T05:40:05.212Z,25.80
2018-03-25T05:42:32.721Z,26.60
2018-03-25T05:45:00.250Z,22.40
2018-03-25T05:47:28.490Z,19.93
2018-03-25T05:49:56.043Z,20.40
2018-03-25T05:52:23.528Z,17.63
2018-03-25T05:54:51.075Z,17.20
2018-03-25T05:57:18.594Z,17.03
2018-03-25T05:59:46.133Z,17.10
2018-03-25T06:02:13.611Z,17.50
2018-03-25T06:04:41.227Z,15.87
2018-03-25T06:07:08.774Z,16.50
2018-03-25T06:09:36.321Z,16.70
2018-03-25T06:12:03.795Z,16.53
2018-03-25T06:14:31.299Z,15.60
2018-03-25T06:16:58.803Z,15.13
2018-03-25T06:19:26.323Z,15.20
2018-03-25T06:21:53.981Z,17.30
2018-03-25T06:24:23.302Z,16.13
2018-03-25T06:26:50.924Z,15.70
2018-03-25T06:29:19.186Z,14.47
2018-03-25T06:31:46.667Z,16.57
2018-03-25T06:34:14.899Z,15.90
2018-03-25T06:36:42.373Z,14.93
2018-03-25T06:39:09.847Z,15.90
2018-03-25T06:41:38.169Z,17.17
2018-03-25T06:44:05.647Z,16.07
2018-03-25T06:46:33.292Z,15.93
2018-03-25T06:49:00.786Z,16.60
2018-03-25T06:51:28.331Z,15.60
2018-03-25T06:53:55.827Z,15.10
2018-03-25T06:56:24.136Z,16.63
2018-03-25T06:58:51.606Z,16.90
2018-03-25T07:01:19.094Z,16.10
2018-03-25T07:03:46.574Z,16.00
2018-03-25T07:06:14.823Z,16.20
2018-03-25T07:08:42.301Z,16.40
2018-03-25T07:11:09.792Z,15.43
2018-03-25T07:13:37.285Z,17.60
2018-03-25T07:16:04.773Z,16.30
2018-03-25T07:18:32.271Z,16.40
2018-03-25T07:20:59.761Z,16.13
2018-03-25T07:23:27.272Z,18.47
2018-03-25T07:25:55.652Z,16.03
2018-03-25T07:28:23.158Z,17.53
2018-03-25T07:30:50.634Z,16.73
2018-03-25T07:33:18.906Z,16.47
2018-03-25T07:35:46.375Z,18.60
2018-03-25T07:38:13.862Z,18.53
2018-03-25T07:40:42.122Z,19.27
2018-03-25T07:43:09.612Z,18.70
2018-03-25T07:45:37.104Z,18.50
2018-03-25T07:48:04.598Z,19.07
2018-03-25T07:50:32.863Z,21.87
2018-03-25T07:53:00.337Z,20.10
2018-03-25T07:55:27.884Z,17.43
2018-03-25T07:57:55.443Z,19.07
2018-03-25T08:00:22.932Z,17.70
2018-03-25T08:02:51.255Z,18.03
2018-03-25T08:05:19.043Z,17.60
2018-03-25T08:07:46.561Z,18.47
2018-03-25T08:10:14.273Z,20.00
2018-03-25T08:12:41.800Z,19.40
2018-03-25T08:15:09.449Z,18.53
2018-03-25T08:17:36.931Z,22.50
2018-03-25T08:20:04.498Z,19.67
2018-03-25T08:22:31.986Z,18.60
2018-03-25T08:25:00.478Z,19.47
2018-03-25T08:27:28.806Z,19.27
2018-03-25T08:29:56.281Z,17.87
2018-03-25T08:32:23.760Z,18.43
2018-03-25T08:34:51.303Z,18.10
2018-03-25T08:37:18.809Z,18.47
2018-03-25T08:39:46.314Z,17.70
2018-03-25T08:42:13.823Z,18.67
2018-03-25T08:44:41.378Z,23.57
2018-03-25T08:47:08.878Z,29.07
2018-03-25T08:49:36.456Z,28.90
2018-03-25T08:52:03.942Z,27.50
2018-03-25T08:54:31.424Z,23.80
2018-03-25T08:56:58.912Z,18.90
2018-03-25T08:59:26.416Z,18.80
2018-03-25T09:01:54.670Z,17.40
2018-03-25T09:04:22.137Z,19.42
2018-03-25T09:06:49.740Z,17.47
2018-03-25T09:09:17.278Z,18.07
2018-03-25T09:11:45.567Z,19.10
2018-03-25T09:14:13.103Z,18.90
2018-03-25T09:16:41.279Z,18.73
2018-03-25T09:19:08.807Z,19.30
2018-03-25T09:21:36.279Z,18.83
2018-03-25T09:24:03.751Z,18.77
2018-03-25T09:26:31.245Z,18.45
2018-03-25T09:28:58.738Z,20.53
2018-03-25T09:31:26.282Z,20.42
2018-03-25T09:33:53.786Z,19.40
2018-03-25T09:36:21.282Z,21.02
2018-03-25T09:38:49.233Z,20.90
2018-03-25T09:41:17.595Z,19.52
2018-03-25T09:43:45.141Z,18.62
2018-03-25T09:46:12.629Z,21.37
2018-03-25T09:48:42.113Z,20.52
2018-03-25T09:51:09.779Z,18.85
2018-03-25T09:53:37.271Z,19.25
2018-03-25T09:56:04.771Z,20.15
2018-03-25T09:58:32.289Z,20.62
2018-03-25T10:01:05.544Z,20.45
2018-03-25T10:03:33.023Z,17.92
2018-03-25T10:06:01.301Z,19.00
2018-03-25T10:08:29.548Z,18.52
2018-03-25T10:10:57.027Z,18.70
2018-03-25T10:13:25.308Z,20.05
2018-03-25T10:15:53.575Z,20.30
2018-03-25T10:18:21.047Z,19.75
2018-03-25T10:20:49.350Z,20.52
2018-03-25T10:23:16.824Z,20.85
2018-03-25T10:25:45.158Z,20.48
2018-03-25T10:28:13.397Z,21.08
2018-03-25T10:30:41.665Z,21.92
2018-03-25T10:33:09.134Z,21.92
2018-03-25T10:35:36.683Z,22.70
2018-03-25T10:38:04.179Z,21.42
2018-03-25T10:40:31.667Z,21.90
2018-03-25T10:43:00.023Z,21.05
2018-03-25T10:45:27.502Z,22.62
2018-03-25T10:47:55.785Z,22.17
2018-03-25T10:50:23.319Z,20.77
2018-03-25T10:52:50.827Z,20.95
2018-03-25T10:55:18.320Z,23.27
2018-03-25T10:57:45.790Z,25.40
2018-03-25T11:00:13.400Z,23.27
2018-03-25T11:02:40.875Z,22.77
2018-03-25T11:05:08.360Z,24.65
2018-03-25T11:07:35.852Z,25.60
2018-03-25T11:10:04.107Z,23.73
2018-03-25T11:12:31.602Z,24.37
2018-03-25T11:14:59.083Z,24.20
2018-03-25T11:17:26.581Z,22.00
2018-03-25T11:19:54.058Z,24.90
2018-03-25T11:22:21.572Z,24.70
2018-03-25T11:24:49.059Z,25.37
2018-03-25T11:27:16.566Z,27.23
2018-03-25T11:29:44.049Z,27.90
2018-03-25T11:32:11.554Z,25.63
2018-03-25T11:34:39.812Z,25.97
2018-03-25T11:37:07.311Z,24.90
2018-03-25T11:39:34.806Z,21.87
2018-03-25T11:42:02.310Z,22.53
2018-03-25T11:44:30.563Z,26.00
2018-03-25T11:46:58.059Z,28.00
2018-03-25T11:49:25.587Z,25.80
2018-03-25T11:51:53.088Z,25.87
2018-03-25T11:54:20.751Z,27.00
2018-03-25T11:56:48.334Z,23.97
2018-03-25T11:59:15.861Z,25.30
2018-03-25T12:01:43.349Z,24.83
2018-03-25T12:04:10.835Z,26.17
2018-03-25T12:06:38.315Z,24.30
2018-03-25T12:09:06.565Z,24.03
2018-03-25T12:11:34.059Z,25.17
2018-03-25T12:14:02.317Z,25.37
2018-03-25T12:16:29.810Z,24.93
2018-03-25T12:18:57.292Z,24.77
2018-03-25T12:21:24.835Z,23.97
2018-03-25T12:23:52.326Z,27.50
2018-03-25T12:26:20.172Z,24.53
2018-03-25T12:28:48.874Z,24.73
2018-03-25T12:31:16.683Z,25.87
2018-03-25T12:33:44.233Z,25.07
2018-03-25T12:36:11.697Z,26.80
2018-03-25T12:38:40.040Z,26.13
2018-03-25T12:41:07.499Z,24.83
2018-03-25T12:43:34.978Z,24.70
2018-03-25T12:46:02.476Z,26.00
2018-03-25T12:48:29.970Z,25.97
2018-03-25T12:50:57.447Z,26.03
2018-03-25T12:53:24.941Z,24.87
2018-03-25T12:55:53.234Z,26.00
2018-03-25T12:58:20.699Z,27.13
2018-03-25T13:00:48.239Z,25.77
2018-03-25T13:03:16.519Z,23.87
2018-03-25T13:05:44.800Z,24.03
2018-03-25T13:08:13.041Z,23.80
2018-03-25T13:10:40.535Z,23.40
2018-03-25T13:13:08.093Z,23.87
2018-03-25T13:15:36.368Z,25.57
2018-03-25T13:18:04.608Z,22.37
2018-03-25T13:20:32.086Z,23.20
2018-03-25T13:22:59.611Z,23.97
2018-03-25T13:25:27.124Z,24.43
2018-03-25T13:27:55.433Z,23.00
2018-03-25T13:30:22.895Z,23.67
2018-03-25T13:32:50.374Z,25.53
2018-03-25T13:35:17.849Z,24.23
2018-03-25T13:37:45.360Z,24.73
2018-03-25T13:40:12.907Z,22.03
2018-03-25T13:42:40.404Z,23.00
2018-03-25T13:45:07.902Z,20.30
2018-03-25T13:47:36.160Z,22.77
2018-03-25T13:50:03.631Z,23.13
2018-03-25T13:52:31.888Z,23.37
2018-03-25T13:54:59.379Z,21.20
2018-03-25T13:57:27.639Z,23.60
2018-03-25T13:59:55.104Z,24.13
2018-03-25T14:02:23.412Z,22.20
2018-03-25T14:04:50.888Z,24.40
2018-03-25T14:07:18.396Z,23.60
2018-03-25T14:09:46.668Z,21.70
2018-03-25T14:12:14.978Z,22.90
2018-03-25T14:14:42.465Z,22.80
2018-03-25T14:17:10.710Z,22.67
2018-03-25T14:19:38.248Z,25.40
2018-03-25T14:22:05.788Z,25.70
2018-03-25T14:24:33.549Z,24.03
2018-03-25T14:27:01.074Z,23.67
2018-03-25T14:29:28.555Z,24.43
2018-03-25T14:31:57.046Z,25.20
2018-03-25T14:34:25.035Z,25.00
2018-03-25T14:36:52.566Z,23.00
2018-03-25T14:39:20.101Z,24.80
2018-03-25T14:41:47.585Z,24.10
2018-03-25T14:44:15.446Z,25.20
2018-03-25T14:46:42.918Z,25.33
2018-03-25T14:49:10.460Z,24.17
2018-03-25T14:51:37.935Z,25.10
2018-03-25T14:54:05.421Z,26.40
2018-03-25T14:56:32.961Z,26.93
2018-03-25T14:59:00.570Z,26.80
2018-03-25T15:01:28.062Z,26.30
2018-03-25T15:03:55.568Z,25.50
2018-03-25T15:06:23.847Z,25.33
2018-03-25T15:08:52.090Z,25.23
2018-03-25T15:11:19.594Z,25.33
2018-03-25T15:13:47.096Z,28.87
2018-03-25T15:16:14.671Z,26.07
2018-03-25T15:18:42.143Z,28.03
2018-03-25T15:21:09.650Z,26.10
2018-03-25T15:23:37.125Z,25.03
2018-03-25T15:26:04.607Z,25.90
2018-03-25T15:28:32.073Z,25.70
2018-03-25T15:30:59.579Z,28.50
2018-03-25T15:33:27.064Z,29.50
2018-03-25T15:35:54.536Z,27.17
2018-03-25T15:38:22.031Z,25.70
2018-03-25T15:40:50.326Z,27.80
2018-03-25T15:43:17.867Z,28.77
2018-03-25T15:45:46.105Z,24.67
2018-03-25T15:48:13.629Z,27.67
2018-03-25T15:50:41.138Z,27.90
2018-03-25T15:53:08.639Z,27.23
2018-03-25T15:55:36.151Z,27.10
2018-03-25T15:58:03.632Z,28.43
2018-03-25T16:00:31.124Z,26.67
2018-03-25T16:02:58.621Z,27.30
2018-03-25T16:05:26.125Z,27.63
2018-03-25T16:07:53.610Z,28.30
2018-03-25T16:10:21.148Z,29.10
2018-03-25T16:12:48.625Z,27.63
2018-03-25T16:15:16.122Z,26.43
2018-03-25T16:17:43.675Z,26.50
2018-03-25T16:20:11.170Z,29.17
2018-03-25T16:22:39.447Z,27.17
2018-03-25T16:25:06.976Z,28.53
2018-03-25T16:27:34.489Z,28.63
2018-03-25T16:30:02.232Z,26.80
2018-03-25T16:32:29.751Z,34.67
2018-03-25T16:34:57.239Z,31.80
2018-03-25T16:37:24.723Z,34.03
2018-03-25T16:39:52.219Z,36.40
2018-03-25T16:42:19.722Z,32.60
2018-03-25T16:44:48.124Z,30.47
2018-03-25T16:47:16.703Z,30.00
2018-03-25T16:49:44.205Z,33.37
2018-03-25T16:52:11.821Z,29.80
2018-03-25T16:54:39.299Z,28.27
2018-03-25T16:57:07.795Z,28.03
2018-03-25T16:59:35.647Z,30.93
2018-03-25T17:02:03.145Z,28.00
2018-03-25T17:04:31.525Z,26.90
2018-03-25T17:06:59.121Z,26.60
2018-03-25T17:09:27.495Z,27.67
2018-03-25T17:11:54.994Z,28.67
2018-03-25T17:14:22.498Z,26.30
2018-03-25T17:16:49.992Z,28.93
2018-03-25T17:19:18.432Z,27.03
2018-03-25T17:21:45.930Z,28.70
2018-03-25T17:24:14.236Z,27.00
2018-03-25T17:26:41.745Z,30.53
2018-03-25T17:29:10.000Z,31.00
2018-03-25T17:31:37.554Z,29.33
2018-03-25T17:34:05.035Z,29.60
2018-03-25T17:36:32.616Z,30.60
2018-03-25T17:39:00.916Z,32.60
2018-03-25T17:41:28.403Z,33.40
2018-03-25T17:43:56.012Z,34.17
2018-03-25T17:46:24.355Z,35.47
2018-03-25T17:48:51.915Z,34.37
2018-03-25T17:51:19.398Z,36.63
2018-03-25T17:53:46.899Z,35.97
2018-03-25T17:56:14.408Z,38.53
2018-03-25T17:58:41.938Z,37.67
2018-03-25T18:01:09.502Z,34.67
2018-03-25T18:03:36.990Z,37.20
2018-03-25T18:06:04.492Z,36.23
2018-03-25T18:08:31.984Z,37.80
2018-03-25T18:10:59.479Z,33.50
2018-03-25T18:13:27.753Z,36.40
2018-03-25T18:15:55.298Z,33.40
2018-03-25T18:18:22.848Z,34.10
2018-03-25T18:20:56.307Z,34.53
2018-03-25T18:23:18.647Z,33.43
2018-03-25T18:25:46.210Z,35.67
2018-03-25T18:28:13.709Z,33.53
2018-03-25T18:30:41.199Z,32.90
2018-03-25T18:33:09.450Z,29.63
2018-03-25T18:35:36.988Z,32.83
2018-03-25T18:38:04.493Z,32.33
2018-03-25T18:40:32.752Z,31.13
2018-03-25T18:43:00.285Z,32.23
2018-03-25T18:45:27.903Z,32.67
2018-03-25T18:47:56.275Z,32.63
2018-03-25T18:50:23.865Z,30.00
2018-03-25T18:52:51.451Z,32.77
2018-03-25T18:55:19.109Z,34.63
2018-03-25T18:57:47.392Z,29.90
2018-03-25T19:00:14.922Z,32.40
2018-03-25T19:02:42.592Z,30.83
2018-03-25T19:05:10.075Z,31.40
2018-03-25T19:07:37.606Z,31.53
2018-03-25T19:10:05.096Z,31.30
2018-03-25T19:12:32.622Z,30.10
2018-03-25T19:15:00.162Z,31.27
2018-03-25T19:17:28.407Z,29.17
2018-03-25T19:19:56.003Z,28.27
2018-03-25T19:22:23.478Z,30.50
2018-03-25T19:24:51.188Z,29.43
2018-03-25T19:27:18.783Z,28.47
2018-03-25T19:29:47.056Z,31.13
2018-03-25T19:32:15.584Z,27.80
2018-03-25T19:34:43.052Z,32.17
2018-03-25T19:37:10.553Z,31.90
2018-03-25T19:39:38.910Z,30.27
2018-03-25T19:42:06.446Z,31.30
2018-03-25T19:44:34.886Z,28.07
2018-03-25T19:47:03.206Z,29.57
2018-03-25T19:49:30.924Z,28.73
2018-03-25T19:51:58.579Z,26.50
2018-03-25T19:54:26.908Z,28.47
2018-03-25T19:56:54.426Z,28.70
2018-03-25T19:59:22.028Z,29.30
2018-03-25T20:01:49.572Z,26.83
2018-03-25T20:04:17.049Z,28.27
2018-03-25T20:06:44.996Z,28.07
2018-03-25T20:09:12.521Z,26.80
2018-03-25T20:11:40.790Z,27.67
2018-03-25T20:14:08.280Z,26.80
2018-03-25T20:16:36.540Z,27.83
2018-03-25T20:19:04.999Z,25.57
2018-03-25T20:21:32.463Z,25.87
2018-03-25T20:24:00.079Z,26.80
2018-03-25T20:26:27.729Z,29.13
2018-03-25T20:28:55.219Z,26.30
2018-03-25T20:31:22.740Z,27.90
2018-03-25T20:33:50.228Z,24.70
2018-03-25T20:36:17.742Z,26.60
2018-03-25T20:38:46.031Z,27.80
2018-03-25T20:41:14.362Z,26.80
2018-03-25T20:43:41.918Z,27.10
2018-03-25T20:46:09.392Z,27.50
2018-03-25T20:48:36.904Z,27.77
2018-03-25T20:51:04.466Z,25.50
2018-03-25T20:53:31.938Z,26.90
2018-03-25T20:55:59.534Z,25.03
2018-03-25T20:58:27.873Z,24.93
2018-03-25T21:00:55.360Z,26.20
2018-03-25T21:03:22.991Z,24.53
2018-03-25T21:05:50.515Z,24.40
2018-03-25T21:08:18.751Z,25.33
2018-03-25T21:10:46.254Z,26.33
2018-03-25T21:13:14.496Z,25.30
2018-03-25T21:15:41.980Z,25.30
2018-03-25T21:18:10.226Z,25.67
2018-03-25T21:20:37.694Z,25.50
2018-03-25T21:23:05.220Z,25.37
2018-03-25T21:25:32.774Z,26.60
2018-03-25T21:28:04.095Z,25.13
2018-03-25T21:30:31.639Z,28.17
2018-03-25T21:32:59.196Z,27.63
2018-03-25T21:35:26.830Z,27.33
2018-03-25T21:37:54.370Z,26.90
2018-03-25T21:40:21.837Z,27.27
2018-03-25T21:42:49.326Z,28.93
2018-03-25T21:45:16.922Z,26.43
2018-03-25T21:47:45.250Z,27.50
2018-03-25T21:50:12.829Z,29.97
2018-03-25T21:52:40.363Z,26.20
2018-03-25T21:55:07.900Z,29.50
2018-03-25T21:57:35.388Z,30.07
2018-03-25T22:00:02.896Z,29.87
2018-03-25T22:02:30.383Z,28.90
2018-03-25T22:04:57.909Z,29.73
2018-03-25T22:07:26.174Z,29.83
2018-03-25T22:09:53.672Z,29.87
2018-03-25T22:12:21.143Z,31.30
2018-03-25T22:14:48.608Z,33.83
2018-03-25T22:17:16.073Z,29.63
2018-03-25T22:19:43.556Z,31.17
2018-03-25T22:22:11.195Z,30.67
2018-03-25T22:24:38.666Z,32.10
2018-03-25T22:27:06.134Z,33.83
2018-03-25T22:29:33.716Z,32.80
2018-03-25T22:32:01.178Z,30.70
2018-03-25T22:34:28.640Z,32.07
2018-03-25T22:36:56.145Z,31.10
2018-03-25T22:39:23.659Z,33.07
2018-03-25T22:41:51.135Z,32.77
2018-03-25T22:44:18.649Z,32.37
2018-03-25T22:46:46.239Z,31.57
2018-03-25T22:49:13.716Z,33.30
2018-03-25T22:51:41.209Z,32.70
2018-03-25T22:54:08.707Z,34.60
2018-03-25T22:56:36.200Z,33.33
2018-03-25T22:59:03.682Z,33.80
2018-03-25T23:01:31.937Z,34.47
2018-03-25T23:03:59.415Z,31.77
2018-03-25T23:06:27.006Z,35.50
2018-03-25T23:08:54.483Z,34.00
2018-03-25T23:11:21.969Z,33.53
2018-03-25T23:13:49.433Z,36.77
2018-03-25T23:16:16.939Z,32.30
2018-03-25T23:18:44.447Z,34.57
2018-03-25T23:21:11.937Z,34.87
2018-03-25T23:23:39.453Z,33.13
2018-03-25T23:26:06.946Z,37.13
2018-03-25T23:28:34.435Z,37.00
2018-03-25T23:31:02.729Z,35.37
2018-03-25T23:33:30.973Z,36.17
2018-03-25T23:35:58.544Z,36.70
2018-03-25T23:38:26.818Z,33.60
2018-03-25T23:40:55.146Z,34.53
2018-03-25T23:43:23.423Z,36.13
2018-03-25T23:45:50.926Z,36.80
2018-03-25T23:48:18.427Z,33.70
2018-03-25T23:50:45.922Z,35.07
2018-03-25T23:53:13.402Z,36.23
2018-03-25T23:55:40.874Z,34.73
2018-03-25T23:58:08.434Z,34.80
